Time;durP1;ratioP1;P1;durP2;ratioP2;P2;SDS_P1;SDS_P2;PMS_P1;PMS_P2;Temp;Humidity;BMP_temperature;BMP_pressure;BME280_temperature;BME280_humidity;BME280_pressure;Samples;Min_cycle;Max_cycle;Signal;HPM_P1;HPM_P2
2023/06/12 07:15:37;;;;;;;2.55;1.60;;;18.30;70.30;;;;;;5038012;28;20515;-51
2023/06/12 07:18:03;;;;;;;1.88;1.77;;;18.30;70.30;;;;;;5059689;28;20032;-49
2023/06/12 07:20:28;;;;;;;2.05;1.70;;;18.20;70.30;;;;;;5063697;28;20032;-50
2023/06/12 07:22:54;;;;;;;2.03;1.90;;;18.20;70.40;;;;;;5064918;28;20512;-48
2023/06/12 07:25:20;;;;;;;1.90;1.73;;;18.20;70.70;;;;;;5062290;28;20063;-51
2023/06/12 07:27:46;;;;;;;2.97;2.03;;;18.20;70.80;;;;;;5058896;28;20033;-54
2023/06/12 07:30:12;;;;;;;3.05;2.03;;;18.20;70.50;;;;;;5063046;28;20025;-52
2023/06/12 07:32:38;;;;;;;2.17;1.80;;;18.30;70.80;;;;;;5048221;28;20058;-53
2023/06/12 07:35:05;;;;;;;2.28;1.95;;;18.30;70.80;;;;;;5040117;28;20060;-53
2023/06/12 07:37:35;;;;;;;3.25;1.92;;;18.40;70.50;;;;;;5056251;28;20040;-52
2023/06/12 07:40:05;;;;;;;2.15;1.92;;;18.50;70.60;;;;;;5049037;28;20082;-48
2023/06/12 07:42:31;;;;;;;2.75;2.28;;;18.50;70.60;;;;;;5044142;28;20041;-51
2023/06/12 07:44:56;;;;;;;3.17;1.90;;;18.60;70.30;;;;;;5052508;28;20044;-47
2023/06/12 07:47:22;;;;;;;1.90;1.80;;;18.70;70.30;;;;;;5052473;28;20040;-51
2023/06/12 07:49:47;;;;;;;4.50;2.28;;;18.80;70.40;;;;;;5051839;28;20028;-49
2023/06/12 07:52:13;;;;;;;2.35;1.88;;;18.80;70.10;;;;;;5057111;28;20028;-52
2023/06/12 07:54:39;;;;;;;2.75;1.88;;;18.90;69.80;;;;;;5053703;28;20033;-49
2023/06/12 07:57:06;;;;;;;3.33;2.28;;;18.90;70.10;;;;;;5044551;28;20031;-51
2023/06/12 07:59:32;;;;;;;2.40;2.20;;;18.90;70.20;;;;;;5060962;28;20012;-47
2023/06/12 08:01:57;;;;;;;2.40;2.20;;;18.90;70.00;;;;;;5057923;28;20392;-54
2023/06/12 08:04:23;;;;;;;2.20;2.00;;;18.90;69.70;;;;;;5044779;28;20491;-53
2023/06/12 08:06:49;;;;;;;3.17;2.22;;;18.90;69.50;;;;;;5046553;28;20037;-52
2023/06/12 08:09:15;;;;;;;4.03;2.42;;;18.90;69.20;;;;;;5046062;28;20048;-54
2023/06/12 08:11:41;;;;;;;4.60;2.28;;;18.90;69.30;;;;;;5049951;28;20016;-54
2023/06/12 08:14:07;;;;;;;3.33;2.50;;;18.90;69.80;;;;;;5046235;28;20099;-53
2023/06/12 08:16:33;;;;;;;3.15;2.50;;;18.90;69.80;;;;;;5058199;28;20025;-52
2023/06/12 08:18:58;;;;;;;2.63;2.42;;;18.90;69.90;;;;;;5048020;28;20036;-48
2023/06/12 08:21:27;;;;;;;3.85;2.80;;;18.80;69.80;;;;;;5047119;28;20021;-53
2023/06/12 08:23:52;;;;;;;5.05;2.80;;;18.80;70.20;;;;;;5034575;28;20666;-53
2023/06/12 08:26:18;;;;;;;5.70;2.67;;;18.80;70.50;;;;;;5034784;28;20025;-53
2023/06/12 08:28:49;;;;;;;3.20;2.70;;;18.80;70.20;;;;;;5034919;28;20069;-52
2023/06/12 08:31:15;;;;;;;3.70;2.88;;;18.80;69.70;;;;;;5044820;28;20128;-53
2023/06/12 08:33:41;;;;;;;3.80;2.30;;;18.80;69.80;;;;;;5033898;28;20041;-52
2023/06/12 08:36:06;;;;;;;2.47;2.28;;;18.80;70.20;;;;;;5042301;28;20492;-56
2023/06/12 08:38:32;;;;;;;2.60;2.40;;;18.90;70.10;;;;;;5043286;28;20029;-54
2023/06/12 08:41:00;;;;;;;3.50;2.50;;;18.90;70.20;;;;;;5047360;28;20104;-50
2023/06/12 08:43:28;;;;;;;2.95;2.40;;;18.90;70.10;;;;;;5037269;28;20033;-51
2023/06/12 08:45:56;;;;;;;2.42;2.22;;;18.90;70.10;;;;;;5046888;28;20565;-52
2023/06/12 08:48:26;;;;;;;2.67;2.47;;;19.00;70.40;;;;;;5046320;28;20108;-52
2023/06/12 08:50:52;;;;;;;2.88;2.58;;;19.00;70.10;;;;;;5042493;28;20044;-52
2023/06/12 08:53:19;;;;;;;4.47;2.42;;;19.00;69.70;;;;;;5047564;28;20120;-52
2023/06/12 08:55:44;;;;;;;2.67;2.33;;;19.00;70.20;;;;;;5054699;28;20059;-48
2023/06/12 08:58:11;;;;;;;5.45;2.60;;;19.00;70.40;;;;;;5049799;28;20409;-51
2023/06/12 09:00:37;;;;;;;2.60;2.40;;;18.90;70.40;;;;;;5052970;28;20060;-52
2023/06/12 09:03:06;;;;;;;3.20;2.45;;;18.90;70.30;;;;;;5044431;28;20098;-49
2023/06/12 09:05:33;;;;;;;2.88;2.67;;;18.90;70.20;;;;;;5047098;28;20064;-53
2023/06/12 09:08:00;;;;;;;2.40;2.20;;;18.80;70.60;;;;;;5044476;28;20033;-52
2023/06/12 09:10:26;;;;;;;5.07;2.53;;;18.80;70.70;;;;;;5048129;28;20033;-54
2023/06/12 09:12:55;;;;;;;2.58;2.38;;;18.60;70.80;;;;;;5057725;28;20106;-49
2023/06/12 09:15:21;;;;;;;2.47;2.22;;;18.60;71.20;;;;;;5051674;28;20025;-51
2023/06/12 09:17:51;;;;;;;3.60;2.55;;;18.50;71.60;;;;;;5052128;28;20021;-54
2023/06/12 09:20:33;;;;;;;2.40;2.20;;;18.50;71.90;;;;;;5044647;28;20020;-52
2023/06/12 09:23:00;;;;;;;;;;;18.50;71.80;;;;;;5063957;28;20521;-52
2023/06/12 09:25:43;;;;;;;2.28;2.08;;;18.40;71.60;;;;;;5051562;28;19921;-51
2023/06/12 09:28:10;;;;;;;2.20;2.00;;;18.40;72.00;;;;;;5050845;28;20048;-51
2023/06/12 09:30:43;;;;;;;2.72;2.40;;;18.40;72.10;;;;;;5050609;28;20396;-54
2023/06/12 09:33:09;;;;;;;3.47;2.10;;;18.40;71.70;;;;;;5044852;28;20086;-53
2023/06/12 09:35:51;;;;;;;2.97;2.67;;;18.40;71.90;;;;;;5055626;28;20009;-53
2023/06/12 09:38:17;;;;;;;3.38;2.60;;;18.40;72.10;;;;;;5043981;28;20132;-50
2023/06/12 09:40:43;;;;;;;3.28;2.30;;;18.40;72.50;;;;;;5051565;28;20516;-52
2023/06/12 09:43:14;;;;;;;4.78;2.30;;;18.40;72.10;;;;;;5053266;28;20052;-48
2023/06/12 09:45:48;;;;;;;3.22;2.65;;;18.40;71.90;;;;;;5052715;28;20028;-50
2023/06/12 09:48:13;;;;;;;3.67;2.55;;;18.40;72.50;;;;;;5060110;28;20063;-52
2023/06/12 09:50:40;;;;;;;3.03;2.20;;;18.40;72.40;;;;;;5058708;28;20036;-53
2023/06/12 09:53:06;;;;;;;4.15;2.10;;;18.30;72.40;;;;;;5064484;28;21117;-55
2023/06/12 09:55:32;;;;;;;2.60;2.35;;;18.30;72.20;;;;;;5061413;28;20044;-54
2023/06/12 09:57:59;;;;;;;3.03;2.25;;;18.30;72.20;;;;;;5060449;28;20025;-52
2023/06/12 10:00:25;;;;;;;2.63;2.40;;;18.30;72.30;;;;;;5060065;28;20059;-51
2023/06/12 10:03:04;;;;;;;3.28;2.60;;;18.20;72.40;;;;;;5048388;28;20047;-49
2023/06/12 10:05:51;;;;;;;2.55;2.30;;;18.20;72.60;;;;;;5049432;28;20025;-50
2023/06/12 10:08:18;;;;;;;3.50;2.10;;;18.20;72.70;;;;;;5058936;28;20084;-52
2023/06/12 10:10:44;;;;;;;2.67;2.47;;;18.20;72.90;;;;;;5056378;28;20040;-51
2023/06/12 10:13:13;;;;;;;2.30;2.10;;;18.20;73.10;;;;;;5063411;28;20120;-51
2023/06/12 10:15:40;;;;;;;3.75;2.10;;;18.20;72.60;;;;;;5050641;28;20025;-52
2023/06/12 10:18:08;;;;;;;3.40;2.33;;;18.10;72.40;;;;;;5049637;28;20115;-53
2023/06/12 10:20:34;;;;;;;2.35;2.15;;;18.10;72.30;;;;;;5042009;28;20059;-52
2023/06/12 10:23:02;;;;;;;2.58;2.38;;;18.10;72.60;;;;;;5047507;28;20420;-52
2023/06/12 10:25:30;;;;;;;2.35;2.15;;;18.10;72.40;;;;;;5040203;28;20104;-50
2023/06/12 10:27:56;;;;;;;2.38;2.10;;;18.10;72.80;;;;;;5036614;28;20041;-46
2023/06/12 10:30:22;;;;;;;2.47;2.28;;;18.10;72.90;;;;;;5035807;28;20136;-54
2023/06/12 10:32:47;;;;;;;3.13;2.35;;;18.10;73.40;;;;;;5040676;28;20021;-50
2023/06/12 10:35:27;;;;;;;2.65;2.42;;;18.10;73.70;;;;;;5042155;28;20101;-52
2023/06/12 10:37:52;;;;;;;2.35;2.15;;;18.10;73.70;;;;;;5040338;28;20026;-52
2023/06/12 10:40:19;;;;;;;2.72;2.25;;;18.10;73.50;;;;;;5045845;28;20040;-51
2023/06/12 10:42:51;;;;;;;2.85;2.28;;;18.10;74.30;;;;;;5036012;28;20033;-53
2023/06/12 10:45:23;;;;;;;2.45;2.25;;;18.10;73.80;;;;;;5039065;28;20078;-50
2023/06/12 10:48:04;;;;;;;2.50;2.30;;;18.10;74.10;;;;;;5041840;28;20024;-51
2023/06/12 10:50:35;;;;;;;4.95;3.15;;;18.10;73.90;;;;;;5042691;28;20025;-50
2023/06/12 10:53:06;;;;;;;3.95;2.83;;;18.10;73.50;;;;;;5040049;28;20041;-57
2023/06/12 10:55:33;;;;;;;3.55;2.58;;;18.10;73.40;;;;;;5039226;28;20021;-52
2023/06/12 10:58:05;;;;;;;4.38;2.75;;;18.00;74.10;;;;;;5037959;28;20025;-53
2023/06/12 11:00:36;;;;;;;2.83;2.63;;;18.00;73.20;;;;;;5043126;28;20061;-55
2023/06/12 11:03:07;;;;;;;3.53;3.22;;;18.00;73.90;;;;;;5040518;28;20626;-54
2023/06/12 11:05:34;;;;;;;3.15;2.80;;;18.00;73.80;;;;;;5039807;28;20032;-55
2023/06/12 11:08:09;;;;;;;3.03;2.65;;;18.00;74.60;;;;;;5057511;28;20140;-52
2023/06/12 11:10:35;;;;;;;3.83;2.45;;;18.00;74.40;;;;;;5052101;28;20454;-53
2023/06/12 11:13:02;;;;;;;3.25;2.50;;;18.00;74.10;;;;;;5043813;28;20049;-48
2023/06/12 11:15:31;;;;;;;3.33;2.85;;;18.00;74.10;;;;;;5044184;28;20028;-57
2023/06/12 11:17:56;;;;;;;2.85;2.65;;;18.00;74.40;;;;;;5043051;28;20500;-51
2023/06/12 11:20:23;;;;;;;2.95;2.65;;;17.90;74.70;;;;;;5047856;28;20036;-56
2023/06/12 11:22:57;;;;;;;2.85;2.45;;;17.90;75.00;;;;;;5050676;28;20259;-51
2023/06/12 11:25:25;;;;;;;3.20;2.83;;;17.90;74.90;;;;;;5053200;28;20013;-52
2023/06/12 11:27:52;;;;;;;3.38;3.08;;;17.90;75.60;;;;;;5058395;28;20064;-51
2023/06/12 11:30:18;;;;;;;3.15;2.95;;;17.90;75.90;;;;;;5049114;28;20028;-51
2023/06/12 11:32:44;;;;;;;3.53;2.65;;;17.90;76.60;;;;;;5049561;28;20160;-51
2023/06/12 11:35:11;;;;;;;5.22;4.43;;;17.80;76.70;;;;;;5050608;28;20476;-50
2023/06/12 11:37:39;;;;;;;4.15;3.55;;;17.80;77.10;;;;;;5050443;28;20033;-51
2023/06/12 11:40:11;;;;;;;4.03;3.17;;;17.70;77.40;;;;;;5047294;28;20067;-54
2023/06/12 11:42:48;;;;;;;3.40;3.10;;;17.70;77.70;;;;;;5060111;28;20504;-50
2023/06/12 11:45:15;;;;;;;3.97;3.40;;;17.60;78.20;;;;;;5050668;28;20536;-49
2023/06/12 11:47:45;;;;;;;3.55;3.20;;;17.60;78.90;;;;;;5049850;28;20473;-51
2023/06/12 11:50:17;;;;;;;3.60;3.30;;;17.50;79.20;;;;;;5054728;28;20018;-49
2023/06/12 11:52:47;;;;;;;4.07;3.25;;;17.50;79.80;;;;;;5052960;28;20033;-51
2023/06/12 11:55:15;;;;;;;3.57;3.27;;;17.50;80.50;;;;;;5047230;28;20397;-50
2023/06/12 11:57:47;;;;;;;3.35;3.05;;;17.50;80.70;;;;;;5054529;28;20032;-53
2023/06/12 12:00:16;;;;;;;5.03;3.28;;;17.50;80.90;;;;;;5042279;28;20049;-51
2023/06/12 12:02:49;;;;;;;3.78;3.38;;;17.40;81.50;;;;;;5049069;28;20033;-54
2023/06/12 12:05:24;;;;;;;4.82;3.60;;;17.40;81.70;;;;;;5049266;28;20029;-50
2023/06/12 12:07:59;;;;;;;4.15;3.22;;;17.50;81.90;;;;;;5049425;28;20025;-52
2023/06/12 12:10:27;;;;;;;3.78;3.03;;;17.50;82.10;;;;;;5036906;28;20021;-54
2023/06/12 12:13:01;;;;;;;4.03;3.63;;;17.50;82.00;;;;;;5056963;28;20039;-53
2023/06/12 12:15:40;;;;;;;4.03;3.65;;;17.40;81.90;;;;;;5049370;28;20021;-53
2023/06/12 12:18:12;;;;;;;5.40;3.53;;;17.40;82.10;;;;;;5057670;28;20041;-50
2023/06/12 12:20:37;;;;;;;3.90;3.60;;;17.40;82.40;;;;;;5057089;28;20036;-53
2023/06/12 12:23:04;;;;;;;4.53;3.67;;;17.30;82.20;;;;;;5063415;28;20040;-52
2023/06/12 12:25:31;;;;;;;5.00;3.70;;;17.30;82.50;;;;;;5067296;28;21228;-53
2023/06/12 12:28:02;;;;;;;4.10;3.70;;;17.30;82.80;;;;;;5060616;28;20025;-53
2023/06/12 12:30:29;;;;;;;4.50;3.83;;;17.30;82.60;;;;;;5057622;28;20074;-53
2023/06/12 12:32:56;;;;;;;4.15;3.75;;;17.30;82.70;;;;;;5059217;28;20048;-53
2023/06/12 12:35:23;;;;;;;3.40;3.10;;;17.20;82.70;;;;;;5059409;28;20063;-51
2023/06/12 12:37:50;;;;;;;4.03;3.50;;;17.20;82.70;;;;;;5059576;28;20097;-51
2023/06/12 12:40:17;;;;;;;4.45;3.78;;;17.20;83.60;;;;;;5073132;28;20478;-51
2023/06/12 12:42:45;;;;;;;3.85;3.55;;;17.10;83.80;;;;;;5059177;28;20044;-51
2023/06/12 12:45:12;;;;;;;4.20;3.80;;;17.10;84.70;;;;;;5064774;28;20029;-51
2023/06/12 12:47:44;;;;;;;3.90;3.53;;;17.10;84.70;;;;;;5069890;28;20044;-51
2023/06/12 12:50:11;;;;;;;4.18;3.78;;;17.10;84.20;;;;;;5065963;28;20037;-56
2023/06/12 12:52:37;;;;;;;4.75;4.03;;;17.00;84.30;;;;;;5056922;28;20037;-51
2023/06/12 12:55:05;;;;;;;3.85;3.38;;;17.00;84.50;;;;;;5050644;28;20021;-55
2023/06/12 12:57:34;;;;;;;5.10;3.92;;;17.00;84.40;;;;;;5059510;28;20028;-52
2023/06/12 13:00:07;;;;;;;4.20;3.80;;;17.00;84.30;;;;;;5053279;28;20029;-51
2023/06/12 13:02:33;;;;;;;4.53;4.05;;;17.00;85.20;;;;;;5044194;28;20713;-52
2023/06/12 13:04:58;;;;;;;4.18;3.67;;;17.00;85.40;;;;;;5049535;28;20112;-52
2023/06/12 13:07:25;;;;;;;4.80;4.10;;;17.10;85.70;;;;;;5043393;28;20039;-54
2023/06/12 13:09:50;;;;;;;4.57;3.92;;;17.00;86.00;;;;;;5058316;28;20087;-50
2023/06/12 13:12:17;;;;;;;5.15;4.50;;;17.00;86.00;;;;;;5054050;28;20037;-52
2023/06/12 13:14:45;;;;;;;4.53;3.60;;;17.00;86.10;;;;;;5063985;28;20036;-54
2023/06/12 13:17:10;;;;;;;4.30;3.90;;;17.00;86.40;;;;;;5053658;28;20118;-52
2023/06/12 13:19:36;;;;;;;5.35;4.07;;;17.00;86.60;;;;;;5069111;28;20029;-48
2023/06/12 13:22:02;;;;;;;5.47;3.80;;;17.00;86.80;;;;;;5053218;28;20057;-50
2023/06/12 13:24:27;;;;;;;4.20;3.80;;;17.00;86.70;;;;;;5049916;28;20052;-52
2023/06/12 13:26:53;;;;;;;4.53;3.80;;;17.00;86.60;;;;;;5050430;28;20037;-48
2023/06/12 13:29:19;;;;;;;5.50;4.53;;;17.00;86.50;;;;;;5043945;28;20035;-48
2023/06/12 13:31:45;;;;;;;4.72;4.10;;;17.00;87.50;;;;;;5055259;28;20074;-52
2023/06/12 13:34:11;;;;;;;4.05;3.55;;;17.00;88.10;;;;;;5053462;28;20032;-54
2023/06/12 13:36:38;;;;;;;4.25;3.65;;;17.00;87.30;;;;;;5050164;28;20071;-50
2023/06/12 13:39:04;;;;;;;4.65;3.60;;;17.00;87.20;;;;;;5055076;28;20040;-53
2023/06/12 13:41:30;;;;;;;3.97;3.47;;;17.00;87.70;;;;;;5053832;28;20021;-52
2023/06/12 13:43:55;;;;;;;4.75;3.75;;;17.00;87.80;;;;;;5065411;28;20081;-54
2023/06/12 13:46:21;;;;;;;4.20;3.72;;;16.90;87.70;;;;;;5061743;28;20096;-52
2023/06/12 13:48:47;;;;;;;4.10;3.70;;;16.90;88.00;;;;;;5065530;28;20036;-52
2023/06/12 13:51:13;;;;;;;4.53;3.58;;;16.90;88.10;;;;;;5070870;28;20096;-50
2023/06/12 13:53:41;;;;;;;4.22;3.83;;;16.80;88.10;;;;;;5056712;28;20566;-53
2023/06/12 13:56:07;;;;;;;3.42;3.10;;;16.80;88.50;;;;;;5042728;28;20124;-51
2023/06/12 13:58:33;;;;;;;4.13;3.45;;;16.80;88.70;;;;;;5045453;28;20103;-50
2023/06/12 14:00:59;;;;;;;3.88;3.35;;;16.70;88.60;;;;;;5050285;28;20036;-52
2023/06/12 14:03:24;;;;;;;3.50;3.20;;;16.70;89.20;;;;;;5056884;28;20096;-50
2023/06/12 14:05:50;;;;;;;4.47;3.70;;;16.70;89.60;;;;;;5064326;28;20052;-54
2023/06/12 14:08:16;;;;;;;3.50;3.20;;;16.70;90.10;;;;;;5065172;28;20017;-55
2023/06/12 14:10:44;;;;;;;3.38;3.08;;;16.70;90.00;;;;;;5055397;28;20028;-52
2023/06/12 14:13:11;;;;;;;4.00;3.20;;;16.70;90.00;;;;;;5066870;28;20048;-53
2023/06/12 14:15:38;;;;;;;3.58;3.28;;;16.60;90.10;;;;;;5064793;28;20033;-51
2023/06/12 14:18:04;;;;;;;5.45;3.50;;;16.60;90.40;;;;;;5056116;28;20036;-49
2023/06/12 14:20:31;;;;;;;3.83;3.30;;;16.60;90.50;;;;;;5043385;28;20017;-53
2023/06/12 14:22:59;;;;;;;3.10;2.80;;;16.50;90.70;;;;;;5049327;28;20075;-54
2023/06/12 14:25:25;;;;;;;3.90;3.50;;;16.60;90.60;;;;;;5053770;28;20123;-52
2023/06/12 14:27:50;;;;;;;3.88;3.47;;;16.60;90.70;;;;;;5050786;28;20052;-51
2023/06/12 14:30:16;;;;;;;4.13;3.72;;;16.50;90.50;;;;;;5059106;28;20040;-50
2023/06/12 14:32:41;;;;;;;3.83;3.42;;;16.50;91.00;;;;;;5064559;28;20055;-53
2023/06/12 14:35:07;;;;;;;5.20;3.65;;;16.60;90.90;;;;;;5067864;28;20092;-47
2023/06/12 14:37:33;;;;;;;5.55;3.97;;;16.60;91.10;;;;;;5063181;28;20059;-51
2023/06/12 14:39:59;;;;;;;6.40;3.97;;;16.60;91.00;;;;;;5061466;28;20037;-54
2023/06/12 14:42:24;;;;;;;4.55;4.03;;;16.60;90.80;;;;;;5059209;28;20708;-50
2023/06/12 14:44:50;;;;;;;5.10;4.25;;;16.60;91.10;;;;;;5045607;28;20092;-51
2023/06/12 14:47:15;;;;;;;4.50;3.78;;;16.60;90.80;;;;;;5048207;28;20464;-51
2023/06/12 14:49:41;;;;;;;3.80;3.40;;;16.60;91.00;;;;;;5044113;28;20021;-49
2023/06/12 14:52:07;;;;;;;3.78;3.40;;;16.60;90.80;;;;;;5052250;28;20036;-52
2023/06/12 14:54:33;;;;;;;4.20;3.80;;;16.50;91.20;;;;;;5059792;28;20040;-51
2023/06/12 14:56:59;;;;;;;5.35;3.83;;;16.50;91.00;;;;;;5066598;28;20044;-52
2023/06/12 14:59:25;;;;;;;6.15;3.83;;;16.50;91.00;;;;;;5069577;28;21426;-50
2023/06/12 15:01:51;;;;;;;3.92;3.53;;;16.50;91.50;;;;;;5070682;28;20035;-46
2023/06/12 15:04:16;;;;;;;4.38;3.63;;;16.50;91.50;;;;;;5064284;28;20013;-50
2023/06/12 15:06:42;;;;;;;3.92;3.50;;;16.40;91.20;;;;;;5060384;28;20025;-50
2023/06/12 15:09:08;;;;;;;4.20;3.80;;;16.40;91.30;;;;;;5061786;28;20071;-51
2023/06/12 15:11:33;;;;;;;3.92;3.53;;;16.40;91.70;;;;;;5067545;28;20020;-48
2023/06/12 15:13:59;;;;;;;5.03;4.22;;;16.40;91.50;;;;;;5070159;28;20045;-51
2023/06/12 15:16:25;;;;;;;5.70;4.10;;;16.40;91.70;;;;;;5065294;28;20102;-53
2023/06/12 15:18:51;;;;;;;4.38;3.85;;;16.40;92.00;;;;;;5070852;28;20080;-47
2023/06/12 15:21:18;;;;;;;4.30;3.90;;;16.40;91.80;;;;;;5073343;28;20017;-50
2023/06/12 15:23:45;;;;;;;3.80;3.40;;;16.40;91.80;;;;;;5071627;28;20078;-51
2023/06/12 15:26:11;;;;;;;4.35;3.67;;;16.40;91.90;;;;;;5073358;28;20081;-47
2023/06/12 15:28:37;;;;;;;4.18;3.78;;;16.40;91.70;;;;;;5069465;28;20009;-52
2023/06/12 15:31:03;;;;;;;6.65;3.80;;;16.40;91.80;;;;;;5072729;28;20009;-52
2023/06/12 15:33:28;;;;;;;4.68;3.85;;;16.50;91.80;;;;;;5062311;28;20056;-51
2023/06/12 15:35:54;;;;;;;3.65;3.35;;;16.40;91.80;;;;;;5060047;28;20024;-53
2023/06/12 15:38:34;;;;;;;3.72;3.42;;;16.50;91.70;;;;;;5067320;28;20069;-52
2023/06/12 15:41:00;;;;;;;4.18;3.28;;;16.50;91.40;;;;;;5072038;28;20017;-51
2023/06/12 15:43:26;;;;;;;4.82;3.70;;;16.50;91.50;;;;;;5071041;28;20045;-48
2023/06/12 15:45:55;;;;;;;4.28;3.53;;;16.50;91.30;;;;;;5070088;28;20031;-51
2023/06/12 15:48:24;;;;;;;3.30;3.00;;;16.50;91.10;;;;;;5069195;28;20024;-51
2023/06/12 15:50:50;;;;;;;3.35;3.05;;;16.50;90.80;;;;;;5069687;28;20029;-50
2023/06/12 15:53:16;;;;;;;3.22;2.92;;;16.50;90.70;;;;;;5070411;28;20020;-51
2023/06/12 15:55:41;;;;;;;3.88;3.17;;;16.50;90.70;;;;;;5075635;28;20021;-54
2023/06/12 15:58:08;;;;;;;4.18;3.10;;;16.60;90.80;;;;;;5074266;28;20064;-54
2023/06/12 16:00:34;;;;;;;3.58;3.00;;;16.60;90.50;;;;;;5075672;28;20020;-51
2023/06/12 16:03:00;;;;;;;3.30;2.88;;;16.60;90.30;;;;;;5077523;28;20477;-52
2023/06/12 16:05:26;;;;;;;4.07;3.15;;;16.60;90.30;;;;;;5077961;28;20028;-51
2023/06/12 16:07:51;;;;;;;3.97;3.15;;;16.60;90.00;;;;;;5077854;28;20063;-51
2023/06/12 16:10:17;;;;;;;3.72;3.20;;;16.60;89.70;;;;;;5077153;28;20043;-52
2023/06/12 16:12:43;;;;;;;5.30;3.72;;;16.60;89.10;;;;;;5077508;28;20033;-53
2023/06/12 16:15:09;;;;;;;5.68;3.50;;;16.60;88.60;;;;;;5078141;28;20036;-52
2023/06/12 16:17:34;;;;;;;3.92;3.30;;;16.70;88.50;;;;;;5078594;28;20013;-52
2023/06/12 16:20:00;;;;;;;5.63;3.65;;;16.70;88.30;;;;;;5077230;28;20047;-53
2023/06/12 16:22:25;;;;;;;3.88;3.38;;;16.70;88.40;;;;;;5078250;28;20009;-51
2023/06/12 16:24:51;;;;;;;4.57;3.58;;;16.70;88.40;;;;;;5078765;28;20053;-52
2023/06/12 16:27:17;;;;;;;3.35;3.05;;;16.70;88.00;;;;;;5078846;28;20027;-49
2023/06/12 16:29:43;;;;;;;3.40;3.10;;;16.70;87.70;;;;;;5077979;28;20025;-53
2023/06/12 16:32:09;;;;;;;4.20;3.70;;;16.80;87.60;;;;;;5077511;28;20064;-51
2023/06/12 16:34:37;;;;;;;5.88;3.55;;;16.70;87.30;;;;;;5077543;28;20160;-52
2023/06/12 16:37:03;;;;;;;4.88;3.50;;;16.70;87.30;;;;;;5057484;28;20052;-50
2023/06/12 16:39:30;;;;;;;3.78;3.42;;;16.80;87.60;;;;;;5057629;28;20037;-50
2023/06/12 16:41:56;;;;;;;3.75;3.35;;;16.80;87.50;;;;;;5069067;28;20013;-53
2023/06/12 16:44:22;;;;;;;5.18;3.70;;;16.80;87.00;;;;;;5077828;28;20035;-53
2023/06/12 16:46:47;;;;;;;4.18;3.10;;;16.80;87.50;;;;;;5078272;28;20025;-51
2023/06/12 16:49:13;;;;;;;4.35;3.17;;;16.80;87.00;;;;;;5078506;28;20024;-52
2023/06/12 16:51:39;;;;;;;5.50;3.45;;;16.90;87.20;;;;;;5077159;28;20029;-52
2023/06/12 16:54:06;;;;;;;3.75;3.13;;;16.90;86.60;;;;;;5077262;28;20073;-52
2023/06/12 16:56:32;;;;;;;4.22;3.33;;;16.90;86.30;;;;;;5076989;28;20088;-53
2023/06/12 16:58:58;;;;;;;4.68;3.47;;;16.90;86.60;;;;;;5077516;28;20032;-52
2023/06/12 17:01:24;;;;;;;6.03;4.03;;;16.90;86.60;;;;;;5077954;28;20025;-50
2023/06/12 17:03:49;;;;;;;4.50;3.50;;;16.90;86.50;;;;;;5077568;28;20033;-52
2023/06/12 17:06:15;;;;;;;5.20;4.05;;;16.90;86.10;;;;;;5079567;28;20036;-55
2023/06/12 17:08:41;;;;;;;5.22;4.07;;;17.00;85.50;;;;;;5078156;28;20013;-51
2023/06/12 17:11:09;;;;;;;5.30;4.28;;;16.90;85.00;;;;;;5079097;28;20016;-55
2023/06/12 17:13:35;;;;;;;5.10;4.60;;;17.00;84.60;;;;;;5077954;28;20101;-55
2023/06/12 17:16:02;;;;;;;6.90;5.03;;;17.00;84.30;;;;;;5078088;28;20017;-53
2023/06/12 17:18:28;;;;;;;5.20;4.70;;;17.00;84.60;;;;;;5078284;28;20021;-53
2023/06/12 17:20:54;;;;;;;6.00;5.18;;;17.00;84.40;;;;;;5079145;28;20020;-55
2023/06/12 17:23:20;;;;;;;6.25;5.65;;;17.00;84.20;;;;;;5078858;28;20036;-54
2023/06/12 17:25:46;;;;;;;6.43;5.70;;;16.90;84.20;;;;;;5077998;28;20016;-54
2023/06/12 17:28:11;;;;;;;7.85;5.65;;;16.90;83.80;;;;;;5078393;28;20036;-51
2023/06/12 17:30:39;;;;;;;8.73;6.13;;;16.90;83.90;;;;;;5077152;28;20033;-55
2023/06/12 17:33:05;;;;;;;5.97;5.40;;;16.90;84.80;;;;;;5077110;28;20086;-54
2023/06/12 17:35:31;;;;;;;7.75;5.68;;;16.90;83.70;;;;;;5077286;28;20084;-55
2023/06/12 17:37:57;;;;;;;6.43;5.70;;;16.90;83.30;;;;;;5077395;28;20035;-53
2023/06/12 17:40:22;;;;;;;7.00;6.07;;;16.90;84.00;;;;;;5077656;28;20021;-54
2023/06/12 17:42:48;;;;;;;7.15;6.20;;;17.00;84.00;;;;;;5076959;28;20276;-55
2023/06/12 17:45:13;;;;;;;8.68;6.72;;;17.00;84.10;;;;;;5078487;28;20013;-55
2023/06/12 17:47:39;;;;;;;7.72;6.43;;;17.00;83.60;;;;;;5078798;28;20076;-54
2023/06/12 17:50:05;;;;;;;8.20;6.25;;;17.00;83.40;;;;;;5078627;28;20021;-54
2023/06/12 17:52:31;;;;;;;9.27;6.40;;;17.00;83.40;;;;;;5078624;28;20041;-55
2023/06/12 17:54:57;;;;;;;6.57;5.97;;;16.90;83.30;;;;;;5078614;28;20048;-54
2023/06/12 17:57:22;;;;;;;7.10;6.40;;;16.90;82.90;;;;;;5078073;28;20024;-53
2023/06/12 17:59:48;;;;;;;8.65;7.03;;;17.00;83.20;;;;;;5077762;28;20021;-53
2023/06/12 18:02:13;;;;;;;8.00;7.07;;;17.00;83.40;;;;;;5078592;28;20006;-53
2023/06/12 18:04:40;;;;;;;8.07;7.00;;;16.90;83.40;;;;;;5078378;28;20037;-52
2023/06/12 18:07:06;;;;;;;8.32;6.65;;;16.90;84.80;;;;;;5077914;28;20041;-53
2023/06/12 18:09:32;;;;;;;7.55;6.75;;;16.90;83.60;;;;;;5078189;28;20013;-55
2023/06/12 18:11:57;;;;;;;9.38;7.30;;;16.90;83.90;;;;;;5077752;28;20051;-52
2023/06/12 18:14:23;;;;;;;7.50;6.70;;;16.90;84.60;;;;;;5078316;28;20009;-52
2023/06/12 18:16:48;;;;;;;8.40;7.15;;;16.90;84.10;;;;;;5075659;28;20041;-52
2023/06/12 18:19:14;;;;;;;8.25;7.00;;;16.90;84.20;;;;;;5077441;28;20092;-55
2023/06/12 18:21:41;;;;;;;8.13;7.00;;;16.90;85.00;;;;;;5076809;28;20032;-53
2023/06/12 18:24:06;;;;;;;8.23;7.03;;;16.90;84.80;;;;;;5077813;28;20037;-55
2023/06/12 18:26:32;;;;;;;7.85;7.05;;;16.90;84.60;;;;;;5077783;28;20025;-53
2023/06/12 18:28:58;;;;;;;7.28;6.55;;;16.90;85.20;;;;;;5077500;28;20024;-54
2023/06/12 18:31:24;;;;;;;9.30;7.22;;;16.90;85.60;;;;;;5077283;28;20014;-55
2023/06/12 18:33:49;;;;;;;8.85;7.53;;;16.90;85.10;;;;;;5076661;28;20084;-54
2023/06/12 18:36:18;;;;;;;7.88;6.90;;;16.80;85.30;;;;;;5077027;28;20032;-54
2023/06/12 18:38:47;;;;;;;8.80;7.30;;;16.80;84.90;;;;;;5076790;28;20020;-55
2023/06/12 18:41:13;;;;;;;10.85;7.65;;;16.80;85.20;;;;;;5077359;28;20013;-54
2023/06/12 18:43:38;;;;;;;9.10;7.13;;;16.80;84.90;;;;;;5077327;28;20027;-53
2023/06/12 18:46:04;;;;;;;8.35;7.53;;;16.70;85.50;;;;;;5077517;28;20033;-53
2023/06/12 18:48:30;;;;;;;8.02;6.90;;;16.70;85.30;;;;;;5077290;28;20017;-54
2023/06/12 18:50:56;;;;;;;8.95;7.55;;;16.70;85.60;;;;;;5076195;28;20044;-50
2023/06/12 18:53:23;;;;;;;9.18;7.50;;;16.70;86.00;;;;;;5077271;28;20047;-52
2023/06/12 18:55:48;;;;;;;7.40;6.70;;;16.70;85.50;;;;;;5076480;28;20037;-54
2023/06/12 18:58:14;;;;;;;8.43;7.53;;;16.70;85.20;;;;;;5076720;28;20043;-52
2023/06/12 19:00:40;;;;;;;11.35;8.02;;;16.60;85.50;;;;;;5076807;28;20036;-53
2023/06/12 19:03:06;;;;;;;8.00;6.97;;;16.60;86.10;;;;;;5076870;28;20061;-53
2023/06/12 19:05:32;;;;;;;9.25;7.45;;;16.60;86.50;;;;;;5076994;28;20059;-53
2023/06/12 19:07:57;;;;;;;9.75;8.10;;;16.60;85.80;;;;;;5075889;28;20033;-52
2023/06/12 19:10:24;;;;;;;9.32;7.13;;;16.60;86.10;;;;;;5076674;28;20472;-54
2023/06/12 19:12:50;;;;;;;10.13;8.07;;;16.60;86.10;;;;;;5076321;28;20025;-54
2023/06/12 19:15:16;;;;;;;10.27;8.63;;;16.60;86.10;;;;;;5076769;28;20044;-54
2023/06/12 19:17:42;;;;;;;8.80;7.78;;;16.50;86.50;;;;;;5076106;28;20013;-55
2023/06/12 19:20:08;;;;;;;9.50;8.50;;;16.50;86.80;;;;;;5076922;28;20051;-54
2023/06/12 19:22:33;;;;;;;9.60;7.93;;;16.50;86.70;;;;;;5076471;28;20043;-53
2023/06/12 19:24:59;;;;;;;9.30;8.25;;;16.50;86.30;;;;;;5075608;28;20009;-54
2023/06/12 19:27:25;;;;;;;10.15;9.15;;;16.40;86.50;;;;;;5076529;28;20021;-54
2023/06/12 19:29:50;;;;;;;12.68;9.35;;;16.40;86.80;;;;;;5075803;28;20036;-53
2023/06/12 19:32:16;;;;;;;10.02;8.93;;;16.40;86.50;;;;;;5076947;28;20041;-54
2023/06/12 19:34:45;;;;;;;9.10;7.88;;;16.50;86.40;;;;;;5076165;28;20020;-52
2023/06/12 19:37:11;;;;;;;10.52;8.70;;;16.50;86.80;;;;;;5076777;28;20040;-55
2023/06/12 19:39:41;;;;;;;10.93;8.77;;;16.50;86.60;;;;;;5076407;28;20013;-51
2023/06/12 19:42:07;;;;;;;9.35;8.35;;;16.40;86.00;;;;;;5076224;28;20024;-54
2023/06/12 19:44:33;;;;;;;11.63;7.78;;;16.40;86.30;;;;;;5076187;28;20005;-53
2023/06/12 19:46:58;;;;;;;11.60;9.18;;;16.40;86.20;;;;;;5076485;28;20076;-52
2023/06/12 19:49:24;;;;;;;9.95;8.95;;;16.40;85.90;;;;;;5076608;28;20041;-52
2023/06/12 19:51:50;;;;;;;11.02;8.90;;;16.40;86.30;;;;;;5076318;28;20184;-55
2023/06/12 19:54:15;;;;;;;9.55;7.93;;;16.40;86.50;;;;;;5076210;28;20076;-52
2023/06/12 19:56:41;;;;;;;9.35;8.38;;;16.40;86.80;;;;;;5075781;28;20040;-53
2023/06/12 19:59:07;;;;;;;9.07;7.93;;;16.40;86.10;;;;;;5075530;28;20044;-53